KCLE/CLE METAR and TAF weather

Enter ICAO airport designator
Station Type Date Time Source
KCLE METAR 2022/12/05 13:51 UTC NOAA

KCLE 051351Z 18009KT 10SM BKN190 01/M09 A3002 RMK AO2 SLP189 T00111089


Station Type Date Time Source
KCLE Decoded METAR 2022/12/05 13:51 UTC NOAA

CLEVELAND-HOPKINS INTERNATIONAL , OH, United States (KCLE) 41-24N 081-51W 236M
Dec 05, 2022 - 08:51 AM EST / 2022.12.05 1351 UTC
Wind: from the S (180 degrees) at 10 MPH (9 KT):0
Visibility: 10 mile(s):0
Sky conditions: mostly cloudy
Temperature: 34.0 F (1.1 C)
Windchill: 26 F (-3 C):1
Dew Point: 16.0 F (-8.9 C)
Relative Humidity: 47%
Pressure (altimeter): 30.02 in. Hg (1016 hPa)
ob: KCLE 051351Z 18009KT 10SM BKN190 01/M09 A3002 RMK AO2 SLP189 T00111089
cycle: 14

Station Type Date Time Source
KCLE TAF 2022/12/05 15:36 UTC NOAA

TAF
AMD KCLE 051435Z 0515/0618 18010KT P6SM BKN250
FM060000 17009KT P6SM OVC050
FM060600 17007KT P6SM VCSH OVC025
FM060700 18007KT P6SM -SHRA OVC015
FM061100 18005KT P6SM VCSH OVC009

Example: see airport list